« Back
NWS Peachtree City, Ga » Text Product » CSG Terminal Aerodrome Forecast


Printer-friendly Version
Current Version              Previous Versions:   1  2  3  4  5  6  7  8  9  

Terminal Aerodrome Forecast

494
FTUS42 KFFC 101120
TAFCSG
TAF
KCSG 101120Z 1012/1112 33009G17KT P6SM SCT035
     FM101500 30014G23KT P6SM FEW060
     FM110000 28009KT P6SM SKC
     FM110600 25004KT P6SM SCT250=

USA.gov is the U.S. government's official web portal to all federal, state and local government web resources and services.